createdAt,value
2022-09-26T00:01:43.155Z,65.85
2022-09-26T00:04:21.191Z,65.42
2022-09-26T00:06:52.675Z,64.60
2022-09-26T00:09:22.017Z,66.45
2022-09-26T00:11:51.033Z,66.81
2022-09-26T00:14:21.766Z,67.45
2022-09-26T00:16:50.946Z,67.54
2022-09-26T00:19:21.116Z,66.90
2022-09-26T00:21:50.282Z,67.03
2022-09-26T00:24:19.271Z,66.32
2022-09-26T00:26:47.676Z,66.80
2022-09-26T00:29:16.500Z,66.99
2022-09-26T00:31:47.694Z,66.39
2022-09-26T00:34:17.750Z,66.55
2022-09-26T00:36:47.645Z,68.12
2022-09-26T00:39:16.965Z,67.50
2022-09-26T00:41:46.182Z,67.47
2022-09-26T00:44:43.212Z,67.92
2022-09-26T00:47:35.848Z,67.52
2022-09-26T00:50:10.721Z,67.70
2022-09-26T00:52:45.443Z,66.07
2022-09-26T00:55:16.490Z,66.91
2022-09-26T00:57:48.853Z,67.48
2022-09-26T01:00:17.457Z,68.47
2022-09-26T01:02:49.179Z,70.27
2022-09-26T01:05:20.136Z,70.13
2022-09-26T01:07:51.692Z,67.24
2022-09-26T01:10:20.291Z,68.50
2022-09-26T01:12:48.857Z,66.82
2022-09-26T01:15:17.408Z,67.37
2022-09-26T01:17:46.973Z,67.55
2022-09-26T01:20:37.680Z,67.23
2022-09-26T01:23:45.088Z,66.55
2022-09-26T01:26:34.487Z,66.67
2022-09-26T01:29:39.130Z,66.08
2022-09-26T01:32:40.000Z,65.37
2022-09-26T01:35:18.444Z,65.90
2022-09-26T01:37:59.602Z,65.67
2022-09-26T01:40:34.001Z,65.87
2022-09-26T01:43:08.980Z,65.63
2022-09-26T01:45:47.547Z,66.04
2022-09-26T01:48:21.880Z,64.98
2022-09-26T01:50:54.871Z,66.12
2022-09-26T01:53:27.150Z,66.13
2022-09-26T01:56:05.202Z,66.09
2022-09-26T01:58:38.174Z,67.35
2022-09-26T02:01:13.313Z,67.57
2022-09-26T02:03:48.029Z,67.07
2022-09-26T02:06:20.582Z,68.76
2022-09-26T02:08:55.102Z,69.32
2022-09-26T02:11:25.632Z,71.54
2022-09-26T02:14:02.639Z,72.92
2022-09-26T02:16:37.140Z,71.93
2022-09-26T02:19:12.456Z,72.34
2022-09-26T02:21:42.635Z,72.49
2022-09-26T02:24:12.597Z,73.10
2022-09-26T02:26:42.415Z,74.21
2022-09-26T02:29:13.344Z,73.49
2022-09-26T02:31:49.586Z,72.93
2022-09-26T02:34:19.738Z,73.21
2022-09-26T02:36:48.299Z,75.12
2022-09-26T02:39:16.809Z,76.75
2022-09-26T02:42:23.662Z,76.34
2022-09-26T02:45:10.210Z,75.41
2022-09-26T02:47:58.917Z,74.71
2022-09-26T02:50:47.087Z,75.72
2022-09-26T02:53:32.826Z,75.09
2022-09-26T02:56:19.028Z,75.62
2022-09-26T02:58:59.812Z,76.14
2022-09-26T03:01:42.910Z,74.03
2022-09-26T03:04:15.963Z,72.95
2022-09-26T03:06:52.651Z,71.82
2022-09-26T03:09:25.632Z,72.04
2022-09-26T03:11:55.819Z,72.34
2022-09-26T03:14:24.453Z,74.01
2022-09-26T03:16:53.388Z,75.43
2022-09-26T03:19:27.659Z,75.78
2022-09-26T03:21:58.919Z,74.64
2022-09-26T03:24:28.494Z,73.99
2022-09-26T03:27:03.776Z,73.78
2022-09-26T03:29:33.267Z,74.02
2022-09-26T03:32:02.423Z,74.93
2022-09-26T03:34:30.860Z,75.08
2022-09-26T03:37:00.790Z,75.18
2022-09-26T03:39:29.494Z,75.16
2022-09-26T03:42:12.072Z,75.43
2022-09-26T03:44:41.543Z,75.45
2022-09-26T03:47:17.354Z,75.33
2022-09-26T03:49:49.915Z,76.21
2022-09-26T03:52:20.055Z,75.56
2022-09-26T03:54:50.457Z,75.14
2022-09-26T03:57:19.563Z,75.23
2022-09-26T03:59:53.214Z,75.36
2022-09-26T04:02:22.755Z,75.61
2022-09-26T04:05:02.427Z,74.38
2022-09-26T04:07:33.316Z,74.03
2022-09-26T04:10:01.820Z,72.73
2022-09-26T04:12:32.639Z,72.31
2022-09-26T04:15:01.249Z,75.31
2022-09-26T04:17:35.780Z,72.21
2022-09-26T04:20:05.846Z,72.89
2022-09-26T04:22:37.352Z,73.36
2022-09-26T04:25:06.831Z,73.58
2022-09-26T04:27:35.440Z,72.44
2022-09-26T04:30:04.078Z,71.28
2022-09-26T04:32:39.200Z,72.20
2022-09-26T04:38:22.693Z,68.86
2022-09-26T04:40:52.316Z,67.91
2022-09-26T04:43:21.349Z,68.72
2022-09-26T04:45:50.042Z,71.22
2022-09-26T04:48:19.832Z,69.76
2022-09-26T04:50:58.569Z,69.73
2022-09-26T04:53:29.565Z,70.07
2022-09-26T04:56:25.388Z,70.93
2022-09-26T04:58:56.385Z,72.60
2022-09-26T05:01:27.842Z,69.89
2022-09-26T05:04:05.029Z,70.26
2022-09-26T05:06:35.090Z,71.74
2022-09-26T05:09:07.082Z,72.17
2022-09-26T05:11:45.087Z,70.15
2022-09-26T05:14:15.081Z,70.42
2022-09-26T05:16:43.924Z,68.49
2022-09-26T05:19:15.740Z,68.22
2022-09-26T05:22:01.980Z,71.58
2022-09-26T05:24:49.434Z,69.84
2022-09-26T05:27:19.439Z,69.63
2022-09-26T05:29:48.076Z,69.45
2022-09-26T05:32:17.761Z,69.22
2022-09-26T05:34:49.052Z,66.84
2022-09-26T05:37:20.536Z,66.60
2022-09-26T05:40:07.761Z,66.72
2022-09-26T05:42:40.691Z,67.25
2022-09-26T05:45:10.124Z,66.88
2022-09-26T05:47:39.482Z,66.97
2022-09-26T05:50:11.038Z,66.64
2022-09-26T05:52:41.167Z,66.77
2022-09-26T05:55:18.988Z,66.36
2022-09-26T05:58:15.712Z,65.19
2022-09-26T06:01:22.698Z,65.95
2022-09-26T06:03:57.991Z,63.77
2022-09-26T06:06:31.076Z,62.81
2022-09-26T06:09:10.404Z,63.34
2022-09-26T06:11:58.738Z,63.76
2022-09-26T06:14:29.790Z,66.10
2022-09-26T06:16:58.770Z,65.59
2022-09-26T06:19:27.236Z,63.86
2022-09-26T06:21:55.846Z,61.30
2022-09-26T06:24:24.369Z,61.12
2022-09-26T06:26:58.827Z,60.87
2022-09-26T06:29:27.353Z,60.72
2022-09-26T06:31:56.007Z,61.78
2022-09-26T06:34:27.303Z,60.78
2022-09-26T06:37:07.809Z,59.31
2022-09-26T06:39:37.116Z,60.81
2022-09-26T06:42:09.077Z,60.25
2022-09-26T06:44:51.321Z,60.25
2022-09-26T06:47:25.751Z,59.32
2022-09-26T06:50:23.294Z,58.44
2022-09-26T06:52:57.345Z,59.99
2022-09-26T06:55:27.712Z,58.50
2022-09-26T06:57:58.657Z,58.05
2022-09-26T07:00:30.816Z,59.18
2022-09-26T07:03:05.799Z,59.62
2022-09-26T07:05:47.020Z,59.26
2022-09-26T07:08:17.067Z,61.14
2022-09-26T07:10:47.300Z,60.07
2022-09-26T07:13:28.756Z,59.98
2022-09-26T07:15:59.562Z,59.37
2022-09-26T07:18:51.195Z,60.25
2022-09-26T07:21:42.689Z,59.79
2022-09-26T07:24:24.679Z,61.52
2022-09-26T07:26:53.500Z,60.38
2022-09-26T07:29:23.468Z,59.12
2022-09-26T07:31:52.876Z,56.64
2022-09-26T07:34:40.878Z,57.40
2022-09-26T07:37:09.606Z,57.45
2022-09-26T07:39:38.073Z,57.43
2022-09-26T07:42:07.348Z,57.38
2022-09-26T07:47:43.207Z,56.47
2022-09-26T07:50:31.688Z,58.25
2022-09-26T07:53:06.379Z,58.10
2022-09-26T07:56:11.612Z,57.93
2022-09-26T07:59:18.860Z,59.83
2022-09-26T08:02:22.274Z,60.01
2022-09-26T08:04:50.999Z,59.47
2022-09-26T08:07:21.268Z,60.67
2022-09-26T08:10:01.891Z,62.21
2022-09-26T08:12:49.865Z,59.43
2022-09-26T08:15:37.062Z,59.92
2022-09-26T08:18:09.387Z,60.00
2022-09-26T08:20:38.401Z,58.61
2022-09-26T08:23:06.643Z,57.25
2022-09-26T08:25:35.311Z,56.03
2022-09-26T08:28:13.262Z,56.55
2022-09-26T08:30:45.383Z,56.51
2022-09-26T08:33:18.958Z,56.10
2022-09-26T08:35:48.696Z,54.10
2022-09-26T08:38:22.661Z,55.70
2022-09-26T08:41:45.598Z,56.10
2022-09-26T08:44:54.690Z,55.73
2022-09-26T08:48:04.980Z,56.38
2022-09-26T08:50:47.368Z,54.30
2022-09-26T08:53:17.632Z,53.29
2022-09-26T08:55:57.890Z,56.46
2022-09-26T08:58:36.222Z,55.37
2022-09-26T09:01:11.446Z,55.19
2022-09-26T09:04:04.750Z,56.58
2022-09-26T09:06:35.817Z,56.18
2022-09-26T09:09:04.789Z,55.80
2022-09-26T09:12:15.048Z,55.03
2022-09-26T09:15:20.637Z,54.05
2022-09-26T09:18:24.454Z,54.32
2022-09-26T09:21:28.305Z,53.33
2022-09-26T09:24:34.241Z,52.00
2022-09-26T09:30:17.600Z,55.60
2022-09-26T09:33:12.534Z,53.37
2022-09-26T09:35:49.001Z,55.24
2022-09-26T09:38:47.343Z,55.06
2022-09-26T09:41:33.273Z,55.62
2022-09-26T09:44:05.638Z,55.30
2022-09-26T09:46:39.239Z,55.08
2022-09-26T09:49:20.353Z,53.26
2022-09-26T09:51:57.614Z,52.80
2022-09-26T09:54:41.853Z,55.58
2022-09-26T09:57:33.786Z,54.24
2022-09-26T10:00:13.012Z,53.82
2022-09-26T10:03:00.323Z,54.34
2022-09-26T10:05:39.120Z,54.78
2022-09-26T10:08:14.005Z,54.70
2022-09-26T10:11:17.120Z,52.61
2022-09-26T10:14:03.518Z,53.82
2022-09-26T10:17:20.474Z,55.39
2022-09-26T10:20:28.530Z,54.69
2022-09-26T10:22:57.450Z,56.50
2022-09-26T10:25:30.400Z,55.10
2022-09-26T10:28:06.485Z,55.57
2022-09-26T10:30:50.301Z,56.61
2022-09-26T10:33:27.028Z,54.65
2022-09-26T10:36:13.934Z,54.78
2022-09-26T10:39:20.669Z,56.29
2022-09-26T10:41:58.342Z,54.65
2022-09-26T10:44:29.360Z,54.04
2022-09-26T10:47:14.739Z,53.98
2022-09-26T10:50:06.982Z,53.58
2022-09-26T10:52:58.866Z,53.80
2022-09-26T10:55:34.748Z,53.66
2022-09-26T10:58:13.537Z,51.93
2022-09-26T11:00:45.868Z,53.77
2022-09-26T11:03:39.296Z,55.85
2022-09-26T11:06:29.632Z,55.54
2022-09-26T11:09:09.472Z,54.91
2022-09-26T11:11:58.405Z,54.33
2022-09-26T11:14:34.534Z,55.08
2022-09-26T11:17:11.657Z,55.93
2022-09-26T11:19:54.866Z,56.27
2022-09-26T11:22:32.017Z,54.67
2022-09-26T11:25:08.452Z,55.49
2022-09-26T11:27:44.126Z,57.15
2022-09-26T11:30:20.953Z,57.29
2022-09-26T11:32:58.104Z,57.08
2022-09-26T11:35:59.286Z,58.15
2022-09-26T11:38:39.568Z,58.19
2022-09-26T11:41:39.593Z,57.98
2022-09-26T11:44:44.561Z,57.56
2022-09-26T11:48:05.346Z,55.74
2022-09-26T11:51:14.251Z,55.05
2022-09-26T11:54:16.054Z,55.39
2022-09-26T11:56:55.365Z,54.08
2022-09-26T11:59:39.689Z,54.04
2022-09-26T12:02:38.367Z,56.13
2022-09-26T12:05:18.439Z,56.47
2022-09-26T12:07:59.180Z,55.38
2022-09-26T12:10:36.512Z,55.11
2022-09-26T12:13:19.269Z,55.74
2022-09-26T12:15:56.302Z,56.06
2022-09-26T12:18:36.364Z,55.95
2022-09-26T12:21:14.840Z,56.72
2022-09-26T12:23:53.566Z,56.99
2022-09-26T12:26:28.584Z,55.29
2022-09-26T12:29:25.805Z,54.01
2022-09-26T12:32:08.244Z,53.36
2022-09-26T12:34:54.603Z,54.44
2022-09-26T12:37:46.850Z,54.97
2022-09-26T12:40:36.346Z,54.03
2022-09-26T12:43:38.684Z,55.36
2022-09-26T12:46:22.711Z,55.82
2022-09-26T12:49:07.692Z,55.13
2022-09-26T12:51:44.206Z,55.47
2022-09-26T12:54:48.497Z,54.81
2022-09-26T12:57:28.523Z,53.79
2022-09-26T13:00:18.753Z,52.60
2022-09-26T13:03:10.876Z,55.03
2022-09-26T13:06:01.991Z,55.03
2022-09-26T13:08:39.658Z,56.14
2022-09-26T13:11:19.945Z,57.16
2022-09-26T13:14:10.727Z,57.20
2022-09-26T13:16:50.365Z,58.88
2022-09-26T13:19:28.355Z,61.03
2022-09-26T13:22:02.417Z,60.62
2022-09-26T13:24:41.148Z,60.61
2022-09-26T13:27:17.846Z,60.91
2022-09-26T13:29:54.640Z,60.75
2022-09-26T13:32:31.100Z,60.30
2022-09-26T13:35:04.313Z,59.93
2022-09-26T13:37:43.002Z,61.06
2022-09-26T13:40:28.224Z,61.14
2022-09-26T13:43:12.099Z,59.44
2022-09-26T13:45:55.366Z,59.92
2022-09-26T13:48:34.928Z,60.53
2022-09-26T13:51:11.411Z,61.11
2022-09-26T13:53:46.644Z,62.15
2022-09-26T13:56:54.065Z,61.71
2022-09-26T13:59:34.739Z,62.89
2022-09-26T14:02:25.088Z,62.97
2022-09-26T14:04:54.897Z,64.81
2022-09-26T14:08:05.093Z,63.57
2022-09-26T14:10:38.835Z,63.55
2022-09-26T14:13:20.298Z,62.82
2022-09-26T14:16:01.835Z,63.78
2022-09-26T14:19:05.178Z,63.59
2022-09-26T14:21:39.330Z,63.39
2022-09-26T14:24:37.537Z,63.94
2022-09-26T14:27:22.640Z,63.35
2022-09-26T14:29:54.234Z,63.77
2022-09-26T14:32:27.276Z,64.51
2022-09-26T14:34:59.506Z,63.06
2022-09-26T14:37:40.467Z,65.16
2022-09-26T14:40:26.101Z,65.53
2022-09-26T14:42:58.953Z,65.47
2022-09-26T14:45:43.271Z,64.90
2022-09-26T14:48:20.279Z,65.36
2022-09-26T14:50:54.434Z,66.08
2022-09-26T14:53:27.671Z,66.83
2022-09-26T14:56:01.060Z,66.22
2022-09-26T14:58:50.525Z,67.61
2022-09-26T15:01:27.139Z,68.82
2022-09-26T15:03:59.327Z,68.10
2022-09-26T15:06:30.765Z,67.61
2022-09-26T15:09:00.601Z,69.41
2022-09-26T15:11:39.185Z,69.79
2022-09-26T15:14:21.608Z,67.86
2022-09-26T15:16:54.880Z,68.25
2022-09-26T15:19:27.100Z,68.88
2022-09-26T15:22:00.561Z,66.99
2022-09-26T15:24:31.220Z,66.06
2022-09-26T15:27:03.893Z,65.47
2022-09-26T15:29:32.595Z,65.75
2022-09-26T15:32:02.504Z,65.36
2022-09-26T15:34:35.167Z,65.03
2022-09-26T15:37:16.125Z,64.56
2022-09-26T15:39:44.945Z,63.73
2022-09-26T15:42:43.763Z,65.55
2022-09-26T15:45:31.947Z,64.34
2022-09-26T15:48:04.841Z,65.27
2022-09-26T15:50:39.842Z,65.34
2022-09-26T15:53:20.295Z,65.84
2022-09-26T15:55:54.291Z,66.12
2022-09-26T15:58:32.215Z,66.26
2022-09-26T16:01:01.391Z,66.17
2022-09-26T16:03:55.323Z,65.40
2022-09-26T16:06:35.010Z,66.95
2022-09-26T16:09:10.416Z,66.56
2022-09-26T16:11:47.761Z,67.24
2022-09-26T16:14:34.727Z,66.88
2022-09-26T16:17:15.018Z,67.09
2022-09-26T16:19:49.422Z,66.80
2022-09-26T16:22:42.773Z,66.56
2022-09-26T16:26:04.878Z,66.78
2022-09-26T16:28:47.745Z,69.06
2022-09-26T16:31:27.334Z,69.72
2022-09-26T16:34:01.266Z,69.35
2022-09-26T16:36:35.189Z,68.75
2022-09-26T16:39:07.383Z,68.38
2022-09-26T16:42:02.706Z,68.80
2022-09-26T16:44:36.319Z,68.02
2022-09-26T16:47:09.294Z,67.67
2022-09-26T16:49:47.289Z,66.98
2022-09-26T16:52:31.238Z,66.29
2022-09-26T16:55:01.847Z,66.20
2022-09-26T16:57:36.911Z,66.80
2022-09-26T17:00:33.725Z,65.42
2022-09-26T17:03:03.011Z,64.75
2022-09-26T17:05:37.756Z,65.26
2022-09-26T17:08:07.089Z,66.45
2022-09-26T17:10:37.906Z,67.76
2022-09-26T17:13:14.540Z,68.06
2022-09-26T17:15:53.158Z,67.54
2022-09-26T17:18:29.099Z,66.74
2022-09-26T17:20:59.228Z,67.23
2022-09-26T17:23:40.902Z,67.22
2022-09-26T17:26:18.435Z,67.50
2022-09-26T17:28:49.493Z,68.00
2022-09-26T17:31:21.691Z,67.75
2022-09-26T17:33:54.777Z,66.34
2022-09-26T17:36:27.484Z,66.06
2022-09-26T17:39:00.689Z,65.89
2022-09-26T17:41:54.307Z,66.02
2022-09-26T17:44:32.617Z,66.99
2022-09-26T17:47:03.132Z,66.63
2022-09-26T17:49:34.288Z,65.78
2022-09-26T17:52:06.848Z,65.38
2022-09-26T17:54:42.698Z,66.37
2022-09-26T17:57:28.107Z,66.55
2022-09-26T17:59:58.998Z,64.74
2022-09-26T18:02:37.884Z,64.23
2022-09-26T18:05:14.001Z,64.77
2022-09-26T18:07:47.220Z,65.06
2022-09-26T18:10:21.003Z,68.39
2022-09-26T18:12:57.502Z,67.10
2022-09-26T18:15:31.188Z,67.15
2022-09-26T18:18:18.760Z,67.38
2022-09-26T18:20:51.238Z,67.80
2022-09-26T18:23:23.677Z,68.48
2022-09-26T18:25:55.340Z,67.25
2022-09-26T18:28:27.832Z,66.90
2022-09-26T18:31:01.068Z,67.37
2022-09-26T18:33:37.898Z,67.53
2022-09-26T18:36:07.446Z,67.93
2022-09-26T18:38:36.801Z,67.64
2022-09-26T18:41:07.183Z,67.17
2022-09-26T18:43:41.219Z,67.42
2022-09-26T18:46:14.532Z,67.93
2022-09-26T18:48:47.998Z,67.52
2022-09-26T18:51:20.630Z,67.34
2022-09-26T18:53:55.843Z,66.94
2022-09-26T18:56:41.911Z,66.30
2022-09-26T18:59:15.273Z,66.70
2022-09-26T19:01:48.892Z,66.66
2022-09-26T19:04:21.528Z,66.06
2022-09-26T19:06:59.028Z,65.99
2022-09-26T19:09:32.274Z,66.01
2022-09-26T19:12:01.228Z,65.63
2022-09-26T19:14:36.986Z,65.67
2022-09-26T19:17:09.686Z,65.99
2022-09-26T19:19:38.746Z,66.24
2022-09-26T19:22:12.765Z,65.19
2022-09-26T19:24:44.896Z,64.48
2022-09-26T19:27:17.372Z,65.87
2022-09-26T19:29:50.141Z,65.05
2022-09-26T19:32:25.221Z,64.91
2022-09-26T19:34:58.253Z,66.00
2022-09-26T19:37:29.668Z,65.36
2022-09-26T19:39:59.111Z,65.53
2022-09-26T19:42:27.725Z,64.79
2022-09-26T19:44:58.500Z,64.92
2022-09-26T19:47:34.673Z,64.69
2022-09-26T19:50:06.096Z,64.56
2022-09-26T19:52:34.719Z,64.30
2022-09-26T19:55:14.252Z,64.54
2022-09-26T19:57:48.703Z,64.88
2022-09-26T20:00:45.664Z,66.17
